createdAt,value
2018-08-19T00:00:00.725Z,2.80
2018-08-19T00:02:34.164Z,2.72
2018-08-19T00:05:15.780Z,2.52
2018-08-19T00:07:49.479Z,3.80
2018-08-19T00:10:38.608Z,3.05
2018-08-19T00:13:12.986Z,3.58
2018-08-19T00:15:46.371Z,4.55
2018-08-19T00:18:19.826Z,3.08
2018-08-19T00:20:53.256Z,4.42
2018-08-19T00:23:29.763Z,3.05
2018-08-19T00:26:03.702Z,3.70
2018-08-19T00:28:37.120Z,2.40
2018-08-19T00:31:10.496Z,3.20
2018-08-19T00:33:43.872Z,2.77
2018-08-19T00:36:34.445Z,2.62
2018-08-19T00:39:08.669Z,2.30
2018-08-19T00:41:42.044Z,2.85
2018-08-19T00:44:15.476Z,2.80
2018-08-19T00:46:48.955Z,2.85
2018-08-19T00:49:22.351Z,3.35
2018-08-19T00:51:57.643Z,2.65
2018-08-19T00:54:31.956Z,2.90
2018-08-19T00:57:07.960Z,2.83
2018-08-19T00:59:41.422Z,3.02
2018-08-19T01:02:14.801Z,3.12
2018-08-19T01:04:48.966Z,3.10
2018-08-19T01:07:22.379Z,3.33
2018-08-19T01:09:55.877Z,3.00
2018-08-19T01:12:29.239Z,4.53
2018-08-19T01:15:02.894Z,3.00
2018-08-19T01:17:41.703Z,4.17
2018-08-19T01:20:19.872Z,3.27
2018-08-19T01:22:53.236Z,3.50
2018-08-19T01:25:26.789Z,3.00
2018-08-19T01:28:00.215Z,4.33
2018-08-19T01:30:33.622Z,2.85
2018-08-19T01:33:07.051Z,5.20
2018-08-19T01:35:40.432Z,3.10
2018-08-19T01:38:13.797Z,3.22
2018-08-19T01:40:47.213Z,4.00
2018-08-19T01:43:20.605Z,3.35
2018-08-19T01:45:53.993Z,3.47
2018-08-19T01:48:27.987Z,4.08
2018-08-19T01:51:01.364Z,3.37
2018-08-19T01:53:34.843Z,3.00
2018-08-19T01:56:08.336Z,3.17
2018-08-19T01:58:46.371Z,3.47
2018-08-19T02:01:19.845Z,4.03
2018-08-19T02:03:53.214Z,3.33
2018-08-19T02:06:26.592Z,3.42
2018-08-19T02:09:00.031Z,3.95
2018-08-19T02:11:33.465Z,3.62
2018-08-19T02:14:06.863Z,3.50
2018-08-19T02:16:40.848Z,5.33
2018-08-19T02:19:14.281Z,6.05
2018-08-19T02:21:48.428Z,3.22
2018-08-19T02:24:21.819Z,3.25
2018-08-19T02:26:55.181Z,4.87
2018-08-19T02:29:35.691Z,3.40
2018-08-19T02:32:10.130Z,3.60
2018-08-19T02:34:45.249Z,3.55
2018-08-19T02:37:18.642Z,3.80
2018-08-19T02:39:52.025Z,3.77
2018-08-19T02:42:30.663Z,3.50
2018-08-19T02:45:06.792Z,4.30
2018-08-19T02:47:40.357Z,3.52
2018-08-19T02:50:13.708Z,8.23
2018-08-19T02:52:47.094Z,4.37
2018-08-19T02:55:20.558Z,4.33
2018-08-19T02:57:58.073Z,4.85
2018-08-19T03:00:31.784Z,4.80
2018-08-19T03:03:05.219Z,4.55
2018-08-19T03:05:38.595Z,7.25
2018-08-19T03:08:11.966Z,4.28
2018-08-19T03:10:45.413Z,4.65
2018-08-19T03:13:18.775Z,4.62
2018-08-19T03:15:55.752Z,5.55
2018-08-19T03:18:29.198Z,4.55
2018-08-19T03:21:02.604Z,4.53
2018-08-19T03:23:35.969Z,5.17
2018-08-19T03:26:09.327Z,6.12
2018-08-19T03:28:42.677Z,5.35
2018-08-19T03:31:16.057Z,4.17
2018-08-19T03:33:49.521Z,4.50
2018-08-19T03:36:22.934Z,5.45
2018-08-19T03:39:03.440Z,4.95
2018-08-19T03:41:36.877Z,3.90
2018-08-19T03:44:10.231Z,3.60
2018-08-19T03:46:43.623Z,5.15
2018-08-19T03:49:17.445Z,3.72
2018-08-19T03:51:50.815Z,4.45
2018-08-19T03:54:24.254Z,4.05
2018-08-19T03:56:57.638Z,4.60
2018-08-19T03:59:31.043Z,4.50
2018-08-19T04:02:04.447Z,4.47
2018-08-19T04:04:37.840Z,4.35
2018-08-19T04:07:11.233Z,5.22
2018-08-19T04:09:44.669Z,4.50
2018-08-19T04:12:24.631Z,5.15
2018-08-19T04:14:58.012Z,4.80
2018-08-19T04:17:31.410Z,5.40
2018-08-19T04:20:05.749Z,5.30
2018-08-19T04:22:39.189Z,4.97
2018-08-19T04:25:12.606Z,5.03
2018-08-19T04:27:45.953Z,4.90
2018-08-19T04:30:19.293Z,5.15
2018-08-19T04:32:52.832Z,5.83
2018-08-19T04:35:26.199Z,5.37
2018-08-19T04:37:59.568Z,5.12
2018-08-19T04:40:33.007Z,4.80
2018-08-19T04:43:06.360Z,5.97
2018-08-19T04:45:39.707Z,4.60
2018-08-19T04:48:13.093Z,5.03
2018-08-19T04:50:46.468Z,5.78
2018-08-19T04:53:20.166Z,7.53
2018-08-19T04:55:54.288Z,6.75
2018-08-19T04:58:27.763Z,6.20
2018-08-19T05:01:01.204Z,5.22
2018-08-19T05:03:34.653Z,5.22
2018-08-19T05:06:08.121Z,4.35
2018-08-19T05:08:41.516Z,4.22
2018-08-19T05:11:14.866Z,3.95
2018-08-19T05:13:48.327Z,4.37
2018-08-19T05:16:21.716Z,4.22
2018-08-19T05:19:00.470Z,4.30
2018-08-19T05:21:33.939Z,4.50
2018-08-19T05:24:07.327Z,3.55
2018-08-19T05:26:40.705Z,3.50
2018-08-19T05:29:14.159Z,4.10
2018-08-19T05:31:54.737Z,5.50
2018-08-19T05:34:31.800Z,4.97
2018-08-19T05:37:05.243Z,5.20
2018-08-19T05:39:40.174Z,5.40
2018-08-19T05:42:14.152Z,5.70
2018-08-19T05:44:47.598Z,5.45
2018-08-19T05:47:21.036Z,6.08
2018-08-19T05:49:54.411Z,5.20
2018-08-19T05:52:27.842Z,8.78
2018-08-19T05:55:01.683Z,6.85
2018-08-19T05:57:35.348Z,6.40
2018-08-19T06:00:14.029Z,6.87
2018-08-19T06:02:47.449Z,7.03
2018-08-19T06:05:20.861Z,5.90
2018-08-19T06:07:59.737Z,8.63
2018-08-19T06:10:33.151Z,5.80
2018-08-19T06:13:07.663Z,8.73
2018-08-19T06:15:41.179Z,8.53
2018-08-19T06:18:14.536Z,8.35
2018-08-19T06:20:47.966Z,7.55
2018-08-19T06:23:22.104Z,8.28
2018-08-19T06:25:55.515Z,8.93
2018-08-19T06:28:28.899Z,7.40
2018-08-19T06:31:02.350Z,8.15
2018-08-19T06:33:35.760Z,8.33
2018-08-19T06:36:09.366Z,8.25
2018-08-19T06:38:42.796Z,7.67
2018-08-19T06:41:16.218Z,7.95
2018-08-19T06:43:49.580Z,9.05
2018-08-19T06:46:23.090Z,8.38
2018-08-19T06:48:56.479Z,7.40
2018-08-19T06:51:29.977Z,8.70
2018-08-19T06:54:03.339Z,6.55
2018-08-19T06:56:37.112Z,7.00
2018-08-19T06:59:10.542Z,6.70
2018-08-19T07:01:43.968Z,7.05
2018-08-19T07:04:17.371Z,6.33
2018-08-19T07:06:50.755Z,7.00
2018-08-19T07:09:24.124Z,5.28
2018-08-19T07:12:04.597Z,10.32
2018-08-19T07:14:38.192Z,6.12
2018-08-19T07:17:11.597Z,5.90
2018-08-19T07:22:17.258Z,6.42
2018-08-19T07:24:50.637Z,7.62
2018-08-19T07:27:24.169Z,6.65
2018-08-19T07:29:57.543Z,7.25
2018-08-19T07:32:30.943Z,10.98
2018-08-19T07:35:04.386Z,7.50
2018-08-19T07:37:37.796Z,6.50
2018-08-19T07:40:11.184Z,10.72
2018-08-19T07:42:44.544Z,8.35
2018-08-19T07:45:17.986Z,11.55
2018-08-19T07:47:51.383Z,7.08
2018-08-19T07:50:25.175Z,9.30
2018-08-19T07:52:58.599Z,7.83
2018-08-19T07:55:32.023Z,7.12
2018-08-19T07:58:05.715Z,6.37
2018-08-19T08:00:39.127Z,7.85
2018-08-19T08:03:12.508Z,8.28
2018-08-19T08:05:47.966Z,11.50
2018-08-19T08:08:21.401Z,9.98
2018-08-19T08:10:54.788Z,9.30
2018-08-19T08:13:28.159Z,12.37
2018-08-19T08:16:01.705Z,8.43
2018-08-19T08:18:35.124Z,8.40
2018-08-19T08:21:14.163Z,13.32
2018-08-19T08:23:47.535Z,11.65
2018-08-19T08:26:21.032Z,8.35
2018-08-19T08:28:59.698Z,10.80
2018-08-19T08:31:39.168Z,6.50
2018-08-19T08:34:12.574Z,7.45
2018-08-19T08:36:45.952Z,7.33
2018-08-19T08:39:19.365Z,9.25
2018-08-19T08:41:52.767Z,7.33
2018-08-19T08:44:26.340Z,7.37
2018-08-19T08:47:05.395Z,9.53
2018-08-19T08:49:44.257Z,6.67
2018-08-19T08:52:25.774Z,8.93
2018-08-19T08:55:01.675Z,6.95
2018-08-19T08:57:35.241Z,8.13
2018-08-19T09:00:09.920Z,9.98
2018-08-19T09:02:43.400Z,11.75
2018-08-19T09:05:16.796Z,7.03
2018-08-19T09:07:50.275Z,7.45
2018-08-19T09:10:23.696Z,8.33
2018-08-19T09:12:57.463Z,8.63
2018-08-19T09:15:30.936Z,8.70
2018-08-19T09:18:04.381Z,8.90
2018-08-19T09:20:37.764Z,7.78
2018-08-19T09:23:11.397Z,8.68
2018-08-19T09:25:45.857Z,9.05
2018-08-19T09:28:20.477Z,7.65
2018-08-19T09:30:54.353Z,8.95
2018-08-19T09:33:28.760Z,6.97
2018-08-19T09:36:02.954Z,7.22
2018-08-19T09:38:36.652Z,7.25
2018-08-19T09:41:10.187Z,8.18
2018-08-19T09:43:43.565Z,8.50
2018-08-19T09:46:17.037Z,11.18
2018-08-19T09:48:50.458Z,7.47
2018-08-19T09:51:23.856Z,7.28
2018-08-19T09:53:57.245Z,8.63
2018-08-19T09:56:35.977Z,9.10
2018-08-19T09:59:09.548Z,6.67
2018-08-19T10:01:47.717Z,7.55
2018-08-19T10:04:25.656Z,9.95
2018-08-19T10:07:04.320Z,7.75
2018-08-19T10:09:37.691Z,9.20
2018-08-19T10:12:12.835Z,7.85
2018-08-19T10:14:46.191Z,7.53
2018-08-19T10:17:19.607Z,7.03
2018-08-19T10:19:52.980Z,6.33
2018-08-19T10:22:30.561Z,9.25
2018-08-19T10:25:08.338Z,7.30
2018-08-19T10:27:41.732Z,7.55
2018-08-19T10:30:15.852Z,10.25
2018-08-19T10:32:56.677Z,8.30
2018-08-19T10:35:30.741Z,7.72
2018-08-19T10:38:04.680Z,6.95
2018-08-19T10:40:38.042Z,12.15
2018-08-19T10:43:11.459Z,7.35
2018-08-19T10:45:44.894Z,8.90
2018-08-19T10:48:18.295Z,6.92
2018-08-19T10:50:51.659Z,7.15
2018-08-19T10:53:27.623Z,6.85
2018-08-19T10:56:02.127Z,7.25
2018-08-19T10:58:35.563Z,9.43
2018-08-19T11:01:08.936Z,8.90
2018-08-19T11:03:42.335Z,7.25
2018-08-19T11:06:15.828Z,7.45
2018-08-19T11:08:54.559Z,11.20
2018-08-19T11:11:34.749Z,6.83
2018-08-19T11:14:12.421Z,6.95
2018-08-19T11:16:45.912Z,5.92
2018-08-19T11:19:19.897Z,7.65
2018-08-19T11:21:53.324Z,6.65
2018-08-19T11:24:28.484Z,6.80
2018-08-19T11:27:05.147Z,7.65
2018-08-19T11:29:40.355Z,8.00
2018-08-19T11:32:22.914Z,6.80
2018-08-19T11:34:56.321Z,7.58
2018-08-19T11:37:29.763Z,7.03
2018-08-19T11:40:03.310Z,8.08
2018-08-19T11:42:36.659Z,6.17
2018-08-19T11:45:10.113Z,7.20
2018-08-19T11:47:47.232Z,6.92
2018-08-19T11:50:20.656Z,6.15
2018-08-19T11:52:57.191Z,7.50
2018-08-19T11:55:30.928Z,7.58
2018-08-19T11:58:04.460Z,7.45
2018-08-19T12:00:45.463Z,6.85
2018-08-19T12:03:19.002Z,6.03
2018-08-19T12:05:54.503Z,6.97
2018-08-19T12:08:28.168Z,7.05
2018-08-19T12:11:15.592Z,8.35
2018-08-19T12:13:53.308Z,7.75
2018-08-19T12:16:27.823Z,6.37
2018-08-19T12:19:05.449Z,7.75
2018-08-19T12:21:43.560Z,6.10
2018-08-19T12:24:28.873Z,6.97
2018-08-19T12:27:04.613Z,6.75
2018-08-19T12:29:39.272Z,8.05
2018-08-19T12:32:16.455Z,6.15
2018-08-19T12:34:50.983Z,6.17
2018-08-19T12:37:25.493Z,6.47
2018-08-19T12:39:59.530Z,5.95
2018-08-19T12:42:38.477Z,13.45
2018-08-19T12:45:12.004Z,8.13
2018-08-19T12:47:45.356Z,7.15
2018-08-19T12:50:18.842Z,6.28
2018-08-19T12:52:52.230Z,9.30
2018-08-19T12:55:25.619Z,6.33
2018-08-19T12:58:03.213Z,8.33
2018-08-19T13:00:36.659Z,5.90
2018-08-19T13:03:10.123Z,5.83
2018-08-19T13:05:58.360Z,6.17
2018-08-19T13:08:31.903Z,6.08
2018-08-19T13:11:06.826Z,7.12
2018-08-19T13:13:40.209Z,5.75
2018-08-19T13:16:13.778Z,8.55
2018-08-19T13:18:47.133Z,6.85
2018-08-19T13:21:20.645Z,6.40
2018-08-19T13:23:54.020Z,6.62
2018-08-19T13:26:27.397Z,7.00
2018-08-19T13:29:00.808Z,8.03
2018-08-19T13:31:35.298Z,5.17
2018-08-19T13:34:08.637Z,5.55
2018-08-19T13:36:42.087Z,4.95
2018-08-19T13:39:15.455Z,6.83
2018-08-19T13:41:48.840Z,6.10
2018-08-19T13:44:22.266Z,5.05
2018-08-19T13:46:55.669Z,5.92
2018-08-19T13:49:29.784Z,8.00
2018-08-19T13:52:03.332Z,6.22
2018-08-19T13:54:48.648Z,4.55
2018-08-19T13:57:22.109Z,5.37
2018-08-19T13:59:55.514Z,5.42
2018-08-19T14:02:28.904Z,5.58
2018-08-19T14:05:02.494Z,6.25
2018-08-19T14:07:35.902Z,6.65
2018-08-19T14:10:10.727Z,5.92
2018-08-19T14:12:44.135Z,9.15
2018-08-19T14:15:17.559Z,5.78
2018-08-19T14:17:50.936Z,6.15
2018-08-19T14:20:24.607Z,6.30
2018-08-19T14:22:58.119Z,6.08
2018-08-19T14:25:31.557Z,5.72
2018-08-19T14:28:05.065Z,5.75
2018-08-19T14:30:38.530Z,5.65
2018-08-19T14:33:11.888Z,4.92
2018-08-19T14:35:45.301Z,5.40
2018-08-19T14:38:18.825Z,5.97
2018-08-19T14:40:52.222Z,5.20
2018-08-19T14:43:25.661Z,5.80
2018-08-19T14:45:59.129Z,5.03
2018-08-19T14:48:32.678Z,6.62
2018-08-19T14:51:06.064Z,5.97
2018-08-19T14:53:39.469Z,4.75
2018-08-19T14:56:15.820Z,5.97
2018-08-19T14:58:49.695Z,6.70
2018-08-19T15:01:23.075Z,5.37
2018-08-19T15:03:58.344Z,5.87
2018-08-19T15:06:31.728Z,6.60
2018-08-19T15:09:05.556Z,5.35
2018-08-19T15:11:38.915Z,6.47
2018-08-19T15:14:18.387Z,5.65
2018-08-19T15:16:52.832Z,5.85
2018-08-19T15:19:26.256Z,6.10
2018-08-19T15:21:59.669Z,6.00
2018-08-19T15:24:33.020Z,6.25
2018-08-19T15:27:06.440Z,5.78
2018-08-19T15:29:42.807Z,6.10
2018-08-19T15:32:16.643Z,10.13
2018-08-19T15:34:49.946Z,5.40
2018-08-19T15:37:23.313Z,5.20
2018-08-19T15:39:56.674Z,6.35
2018-08-19T15:42:30.049Z,6.55
2018-08-19T15:45:03.449Z,5.37
2018-08-19T15:47:36.812Z,5.90
2018-08-19T15:50:18.563Z,5.85
2018-08-19T15:52:52.029Z,6.37
2018-08-19T15:55:25.334Z,6.55
2018-08-19T15:58:01.852Z,5.33
2018-08-19T16:00:38.737Z,6.00
2018-08-19T16:03:13.251Z,6.37
2018-08-19T16:05:46.880Z,6.15
2018-08-19T16:08:20.551Z,6.53
2018-08-19T16:10:53.955Z,5.75
2018-08-19T16:13:27.341Z,6.10
2018-08-19T16:16:00.744Z,5.20
2018-08-19T16:18:34.132Z,5.97
2018-08-19T16:21:07.572Z,5.62
2018-08-19T16:23:41.061Z,5.92
2018-08-19T16:26:14.472Z,5.62
2018-08-19T16:28:48.072Z,6.08
2018-08-19T16:31:21.675Z,6.37
2018-08-19T16:33:55.127Z,9.85
2018-08-19T16:36:28.513Z,9.08
2018-08-19T16:39:01.907Z,9.60
2018-08-19T16:41:35.608Z,7.45
2018-08-19T16:44:09.633Z,6.20
2018-08-19T16:46:43.365Z,7.70
2018-08-19T16:49:17.073Z,7.05
2018-08-19T16:51:50.446Z,6.78
2018-08-19T16:54:23.842Z,7.00
2018-08-19T16:56:57.258Z,6.00
2018-08-19T16:59:30.642Z,7.12
2018-08-19T17:02:04.099Z,7.53
2018-08-19T17:04:38.571Z,7.20
2018-08-19T17:07:12.364Z,7.67
2018-08-19T17:09:45.770Z,6.53
2018-08-19T17:12:19.160Z,6.92
2018-08-19T17:14:52.593Z,6.65
2018-08-19T17:17:26.044Z,6.12
2018-08-19T17:19:59.466Z,6.90
2018-08-19T17:22:32.822Z,7.53
2018-08-19T17:25:06.535Z,6.80
2018-08-19T17:27:39.889Z,7.70
2018-08-19T17:30:17.437Z,7.85
2018-08-19T17:32:52.692Z,7.00
2018-08-19T17:35:26.408Z,8.00
2018-08-19T17:37:59.848Z,7.87
2018-08-19T17:40:33.283Z,8.25
2018-08-19T17:43:07.043Z,7.40
2018-08-19T17:45:40.577Z,8.50
2018-08-19T17:48:14.027Z,7.80
2018-08-19T17:50:47.492Z,8.13
2018-08-19T17:53:20.932Z,8.15
2018-08-19T17:55:54.296Z,7.80
2018-08-19T17:58:27.676Z,8.00
2018-08-19T18:01:01.083Z,7.97
2018-08-19T18:03:34.501Z,7.40
2018-08-19T18:06:07.965Z,7.78
2018-08-19T18:08:48.037Z,7.70
2018-08-19T18:11:21.800Z,7.72
2018-08-19T18:13:55.207Z,6.95
2018-08-19T18:16:28.647Z,7.42
2018-08-19T18:19:03.065Z,8.00
2018-08-19T18:21:36.759Z,8.00
2018-08-19T18:24:10.176Z,7.25
2018-08-19T18:26:43.573Z,7.08
2018-08-19T18:29:18.286Z,8.15
2018-08-19T18:31:51.667Z,8.18
2018-08-19T18:34:25.043Z,7.60
2018-08-19T18:36:58.401Z,7.83
2018-08-19T18:39:31.815Z,7.37
2018-08-19T18:42:05.217Z,8.45
2018-08-19T18:44:38.591Z,7.70
2018-08-19T18:47:11.995Z,8.23
2018-08-19T18:49:45.449Z,7.35
2018-08-19T18:52:18.832Z,8.03
2018-08-19T18:54:52.199Z,8.15
2018-08-19T18:57:25.641Z,8.03
2018-08-19T18:59:59.011Z,7.95
2018-08-19T19:02:32.424Z,7.53
2018-08-19T19:05:06.844Z,8.18
2018-08-19T19:07:40.250Z,7.97
2018-08-19T19:10:13.847Z,8.03
2018-08-19T19:12:47.363Z,7.95
2018-08-19T19:15:20.988Z,8.75
2018-08-19T19:17:54.461Z,8.30
2018-08-19T19:20:27.852Z,8.28
2018-08-19T19:23:03.135Z,8.58
2018-08-19T19:25:40.633Z,7.50
2018-08-19T19:28:14.015Z,7.92
2018-08-19T19:30:47.414Z,8.08
2018-08-19T19:33:21.211Z,7.72
2018-08-19T19:35:54.590Z,8.30
2018-08-19T19:38:27.993Z,7.45
2018-08-19T19:41:09.786Z,9.03
2018-08-19T19:43:43.163Z,8.20
2018-08-19T19:46:16.578Z,8.20
2018-08-19T19:48:50.127Z,8.38
2018-08-19T19:51:23.583Z,8.53
2018-08-19T19:53:56.939Z,8.95
2018-08-19T19:56:30.353Z,8.23
2018-08-19T19:59:03.708Z,8.73
2018-08-19T20:01:37.252Z,7.95
2018-08-19T20:04:10.619Z,7.95
2018-08-19T20:06:43.988Z,7.33
2018-08-19T20:09:17.393Z,7.72
2018-08-19T20:11:50.840Z,8.75
2018-08-19T20:14:24.308Z,7.92
2018-08-19T20:16:57.682Z,8.35
2018-08-19T20:19:31.922Z,9.55
2018-08-19T20:22:05.365Z,8.90
2018-08-19T20:24:38.756Z,9.50
2018-08-19T20:27:12.182Z,8.05
2018-08-19T20:29:45.697Z,8.35
2018-08-19T20:32:19.134Z,8.35
2018-08-19T20:34:52.528Z,9.43
2018-08-19T20:37:27.903Z,8.58
2018-08-19T20:40:01.599Z,8.53
2018-08-19T20:42:34.973Z,8.55
2018-08-19T20:45:08.886Z,9.18
2018-08-19T20:47:42.275Z,9.80
2018-08-19T20:50:16.308Z,8.15
2018-08-19T20:52:49.722Z,9.93
2018-08-19T20:55:23.100Z,10.35
2018-08-19T20:57:56.525Z,9.33
2018-08-19T21:00:29.904Z,9.43
2018-08-19T21:03:03.469Z,9.98
2018-08-19T21:05:37.156Z,9.25
2018-08-19T21:08:12.222Z,9.23
2018-08-19T21:10:46.460Z,9.08
2018-08-19T21:13:20.694Z,10.13
2018-08-19T21:15:55.602Z,8.88
2018-08-19T21:18:29.715Z,9.13
2018-08-19T21:21:03.094Z,8.65
2018-08-19T21:23:36.496Z,9.40
2018-08-19T21:26:09.886Z,9.78
2018-08-19T21:28:48.615Z,9.40
2018-08-19T21:31:22.013Z,9.23
2018-08-19T21:33:55.411Z,9.43
2018-08-19T21:36:28.847Z,9.30
2018-08-19T21:39:02.260Z,9.30
2018-08-19T21:41:46.758Z,9.30
2018-08-19T21:44:20.644Z,9.83
2018-08-19T21:46:54.055Z,10.50
2018-08-19T21:49:27.438Z,9.78
2018-08-19T21:52:01.621Z,9.43
2018-08-19T21:54:35.040Z,8.80
2018-08-19T21:57:08.439Z,9.38
2018-08-19T21:59:41.828Z,9.08
2018-08-19T22:02:20.557Z,9.83
2018-08-19T22:04:54.108Z,9.58
2018-08-19T22:07:27.499Z,9.40
2018-08-19T22:10:00.992Z,9.18
2018-08-19T22:12:35.969Z,9.43
2018-08-19T22:15:09.353Z,8.75
2018-08-19T22:17:42.771Z,8.65
2018-08-19T22:20:16.224Z,9.08
2018-08-19T22:22:49.663Z,8.80
2018-08-19T22:25:23.547Z,9.08
2018-08-19T22:27:56.964Z,9.38
2018-08-19T22:30:31.484Z,9.65
2018-08-19T22:33:05.236Z,9.98
2018-08-19T22:35:38.722Z,9.23
2018-08-19T22:38:17.354Z,9.60
2018-08-19T22:40:50.811Z,10.45
2018-08-19T22:43:24.278Z,9.28
2018-08-19T22:45:57.713Z,8.78
2018-08-19T22:48:40.531Z,8.98
2018-08-19T22:51:14.933Z,9.23
2018-08-19T22:53:52.233Z,8.85
2018-08-19T22:56:25.654Z,9.30
2018-08-19T22:58:59.079Z,9.43
2018-08-19T23:01:38.343Z,8.78
2018-08-19T23:04:11.823Z,9.33
2018-08-19T23:06:45.223Z,8.90
2018-08-19T23:09:18.674Z,9.58
2018-08-19T23:11:52.059Z,8.45
2018-08-19T23:14:36.892Z,9.35
2018-08-19T23:17:10.320Z,8.68
2018-08-19T23:19:43.768Z,9.28
2018-08-19T23:22:17.184Z,8.83
2018-08-19T23:24:50.582Z,8.70
2018-08-19T23:27:23.970Z,9.30
2018-08-19T23:29:57.360Z,8.83
2018-08-19T23:32:30.756Z,9.03
2018-08-19T23:35:04.219Z,8.78
2018-08-19T23:37:37.723Z,9.55
2018-08-19T23:40:11.130Z,8.93
2018-08-19T23:42:44.524Z,8.73
2018-08-19T23:45:17.924Z,8.75
2018-08-19T23:47:51.319Z,8.95
2018-08-19T23:50:24.713Z,8.63
2018-08-19T23:52:58.138Z,9.23
2018-08-19T23:55:32.031Z,8.70
2018-08-19T23:58:05.742Z,8.48
